sensor_id;sensor_type;location;lat;lon;timestamp;P1;durP1;ratioP1;P2;durP2;ratioP2
5819;SDS011;2936;47.348;9.640;2022-12-13T00:00:31;34.13;;;17.15;;
5819;SDS011;2936;47.348;9.640;2022-12-13T00:02:58;33.22;;;17.90;;
5819;SDS011;2936;47.348;9.640;2022-12-13T00:05:26;31.17;;;18.52;;
5819;SDS011;2936;47.348;9.640;2022-12-13T00:07:53;33.90;;;17.48;;
5819;SDS011;2936;47.348;9.640;2022-12-13T00:10:21;28.50;;;17.05;;
5819;SDS011;2936;47.348;9.640;2022-12-13T00:12:49;36.05;;;18.58;;
5819;SDS011;2936;47.348;9.640;2022-12-13T00:15:16;30.17;;;16.65;;
5819;SDS011;2936;47.348;9.640;2022-12-13T00:17:44;24.00;;;15.80;;
5819;SDS011;2936;47.348;9.640;2022-12-13T00:20:11;30.58;;;16.25;;
5819;SDS011;2936;47.348;9.640;2022-12-13T00:22:38;23.27;;;14.45;;
5819;SDS011;2936;47.348;9.640;2022-12-13T00:25:06;24.65;;;15.35;;
5819;SDS011;2936;47.348;9.640;2022-12-13T00:27:33;21.05;;;13.30;;
5819;SDS011;2936;47.348;9.640;2022-12-13T00:30:02;23.80;;;14.48;;
5819;SDS011;2936;47.348;9.640;2022-12-13T00:32:29;23.75;;;14.98;;
5819;SDS011;2936;47.348;9.640;2022-12-13T00:34:57;23.95;;;13.20;;
5819;SDS011;2936;47.348;9.640;2022-12-13T00:37:24;33.45;;;14.52;;
5819;SDS011;2936;47.348;9.640;2022-12-13T00:39:51;24.17;;;13.77;;
5819;SDS011;2936;47.348;9.640;2022-12-13T00:42:19;23.40;;;13.18;;
5819;SDS011;2936;47.348;9.640;2022-12-13T00:44:46;23.05;;;13.57;;
5819;SDS011;2936;47.348;9.640;2022-12-13T00:47:14;24.20;;;14.07;;
5819;SDS011;2936;47.348;9.640;2022-12-13T00:49:44;24.30;;;13.40;;
5819;SDS011;2936;47.348;9.640;2022-12-13T00:52:12;21.48;;;12.30;;
5819;SDS011;2936;47.348;9.640;2022-12-13T00:54:39;23.88;;;12.77;;
5819;SDS011;2936;47.348;9.640;2022-12-13T00:57:06;29.08;;;13.55;;
5819;SDS011;2936;47.348;9.640;2022-12-13T00:59:34;29.35;;;14.80;;
5819;SDS011;2936;47.348;9.640;2022-12-13T01:02:01;23.48;;;14.32;;
5819;SDS011;2936;47.348;9.640;2022-12-13T01:04:30;31.05;;;13.40;;
5819;SDS011;2936;47.348;9.640;2022-12-13T01:06:57;28.20;;;13.52;;
5819;SDS011;2936;47.348;9.640;2022-12-13T01:09:25;22.38;;;13.95;;
5819;SDS011;2936;47.348;9.640;2022-12-13T01:11:55;22.92;;;13.40;;
5819;SDS011;2936;47.348;9.640;2022-12-13T01:14:23;20.13;;;11.50;;
5819;SDS011;2936;47.348;9.640;2022-12-13T01:16:50;17.65;;;11.27;;
5819;SDS011;2936;47.348;9.640;2022-12-13T01:19:19;20.35;;;12.88;;
5819;SDS011;2936;47.348;9.640;2022-12-13T01:21:48;30.40;;;12.98;;
5819;SDS011;2936;47.348;9.640;2022-12-13T01:24:15;19.88;;;11.68;;
5819;SDS011;2936;47.348;9.640;2022-12-13T01:26:44;22.15;;;13.05;;
5819;SDS011;2936;47.348;9.640;2022-12-13T01:29:12;17.33;;;11.27;;
5819;SDS011;2936;47.348;9.640;2022-12-13T01:31:39;18.40;;;11.30;;
5819;SDS011;2936;47.348;9.640;2022-12-13T01:34:06;14.68;;;10.20;;
5819;SDS011;2936;47.348;9.640;2022-12-13T01:36:35;21.65;;;12.05;;
5819;SDS011;2936;47.348;9.640;2022-12-13T01:39:04;19.58;;;10.88;;
5819;SDS011;2936;47.348;9.640;2022-12-13T01:41:32;17.30;;;10.55;;
5819;SDS011;2936;47.348;9.640;2022-12-13T01:44:00;19.40;;;11.30;;
5819;SDS011;2936;47.348;9.640;2022-12-13T01:46:28;22.92;;;13.57;;
5819;SDS011;2936;47.348;9.640;2022-12-13T01:48:57;17.25;;;11.18;;
5819;SDS011;2936;47.348;9.640;2022-12-13T01:51:26;25.80;;;12.85;;
5819;SDS011;2936;47.348;9.640;2022-12-13T01:53:54;25.65;;;12.30;;
5819;SDS011;2936;47.348;9.640;2022-12-13T01:56:24;20.45;;;12.27;;
5819;SDS011;2936;47.348;9.640;2022-12-13T01:58:53;17.25;;;12.63;;
5819;SDS011;2936;47.348;9.640;2022-12-13T02:01:21;24.10;;;13.55;;
5819;SDS011;2936;47.348;9.640;2022-12-13T02:03:48;18.40;;;11.80;;
5819;SDS011;2936;47.348;9.640;2022-12-13T02:06:16;28.73;;;13.02;;
5819;SDS011;2936;47.348;9.640;2022-12-13T02:08:44;20.83;;;12.57;;
5819;SDS011;2936;47.348;9.640;2022-12-13T02:11:12;18.63;;;11.50;;
5819;SDS011;2936;47.348;9.640;2022-12-13T02:13:41;16.63;;;11.05;;
5819;SDS011;2936;47.348;9.640;2022-12-13T02:16:11;23.95;;;11.38;;
5819;SDS011;2936;47.348;9.640;2022-12-13T02:18:44;27.38;;;12.75;;
5819;SDS011;2936;47.348;9.640;2022-12-13T02:21:16;22.83;;;11.10;;
5819;SDS011;2936;47.348;9.640;2022-12-13T02:26:38;15.38;;;10.73;;
5819;SDS011;2936;47.348;9.640;2022-12-13T02:29:14;16.40;;;9.70;;
5819;SDS011;2936;47.348;9.640;2022-12-13T02:31:49;22.65;;;11.98;;
5819;SDS011;2936;47.348;9.640;2022-12-13T02:34:20;18.13;;;11.43;;
5819;SDS011;2936;47.348;9.640;2022-12-13T02:36:53;23.02;;;11.23;;
5819;SDS011;2936;47.348;9.640;2022-12-13T02:39:24;15.65;;;11.20;;
5819;SDS011;2936;47.348;9.640;2022-12-13T02:41:52;20.83;;;10.60;;
5819;SDS011;2936;47.348;9.640;2022-12-13T02:44:21;20.33;;;10.88;;
5819;SDS011;2936;47.348;9.640;2022-12-13T02:46:52;28.75;;;12.05;;
5819;SDS011;2936;47.348;9.640;2022-12-13T02:49:21;20.00;;;11.05;;
5819;SDS011;2936;47.348;9.640;2022-12-13T02:51:49;18.95;;;11.90;;
5819;SDS011;2936;47.348;9.640;2022-12-13T02:54:17;19.83;;;12.50;;
5819;SDS011;2936;47.348;9.640;2022-12-13T02:56:52;17.83;;;11.00;;
5819;SDS011;2936;47.348;9.640;2022-12-13T02:59:19;20.98;;;11.88;;
5819;SDS011;2936;47.348;9.640;2022-12-13T03:01:48;20.02;;;11.23;;
5819;SDS011;2936;47.348;9.640;2022-12-13T03:04:22;19.45;;;10.98;;
5819;SDS011;2936;47.348;9.640;2022-12-13T03:06:56;24.27;;;12.43;;
5819;SDS011;2936;47.348;9.640;2022-12-13T03:09:28;21.52;;;11.70;;
5819;SDS011;2936;47.348;9.640;2022-12-13T03:12:03;16.45;;;11.02;;
5819;SDS011;2936;47.348;9.640;2022-12-13T03:14:52;17.90;;;10.05;;
5819;SDS011;2936;47.348;9.640;2022-12-13T03:17:22;24.70;;;12.77;;
5819;SDS011;2936;47.348;9.640;2022-12-13T03:19:52;16.50;;;10.25;;
5819;SDS011;2936;47.348;9.640;2022-12-13T03:22:20;19.75;;;11.38;;
5819;SDS011;2936;47.348;9.640;2022-12-13T03:24:47;19.90;;;11.18;;
5819;SDS011;2936;47.348;9.640;2022-12-13T03:27:14;21.33;;;11.93;;
5819;SDS011;2936;47.348;9.640;2022-12-13T03:29:42;19.08;;;10.57;;
5819;SDS011;2936;47.348;9.640;2022-12-13T03:32:09;17.92;;;11.15;;
5819;SDS011;2936;47.348;9.640;2022-12-13T03:34:36;26.55;;;13.15;;
5819;SDS011;2936;47.348;9.640;2022-12-13T03:37:05;25.45;;;12.32;;
5819;SDS011;2936;47.348;9.640;2022-12-13T03:39:32;20.15;;;11.38;;
5819;SDS011;2936;47.348;9.640;2022-12-13T03:42:00;18.80;;;11.90;;
5819;SDS011;2936;47.348;9.640;2022-12-13T03:44:27;13.85;;;10.55;;
5819;SDS011;2936;47.348;9.640;2022-12-13T03:46:54;18.25;;;11.23;;
5819;SDS011;2936;47.348;9.640;2022-12-13T03:49:22;13.95;;;10.30;;
5819;SDS011;2936;47.348;9.640;2022-12-13T03:51:49;21.98;;;11.10;;
5819;SDS011;2936;47.348;9.640;2022-12-13T03:54:18;15.07;;;10.50;;
5819;SDS011;2936;47.348;9.640;2022-12-13T03:56:45;24.10;;;10.80;;
5819;SDS011;2936;47.348;9.640;2022-12-13T03:59:12;19.63;;;10.10;;
5819;SDS011;2936;47.348;9.640;2022-12-13T04:01:39;22.42;;;10.32;;
5819;SDS011;2936;47.348;9.640;2022-12-13T04:04:07;20.85;;;11.32;;
5819;SDS011;2936;47.348;9.640;2022-12-13T04:06:34;28.55;;;11.40;;
5819;SDS011;2936;47.348;9.640;2022-12-13T04:09:01;16.70;;;11.10;;
5819;SDS011;2936;47.348;9.640;2022-12-13T04:11:30;20.77;;;10.95;;
5819;SDS011;2936;47.348;9.640;2022-12-13T04:14:15;24.38;;;12.68;;
5819;SDS011;2936;47.348;9.640;2022-12-13T04:16:42;19.92;;;10.43;;
5819;SDS011;2936;47.348;9.640;2022-12-13T04:19:10;20.20;;;10.73;;
5819;SDS011;2936;47.348;9.640;2022-12-13T04:21:37;23.88;;;12.40;;
5819;SDS011;2936;47.348;9.640;2022-12-13T04:24:04;23.35;;;12.30;;
5819;SDS011;2936;47.348;9.640;2022-12-13T04:26:33;18.08;;;10.95;;
5819;SDS011;2936;47.348;9.640;2022-12-13T04:29:00;19.05;;;10.68;;
5819;SDS011;2936;47.348;9.640;2022-12-13T04:31:28;17.92;;;11.30;;
5819;SDS011;2936;47.348;9.640;2022-12-13T04:33:55;20.17;;;12.07;;
5819;SDS011;2936;47.348;9.640;2022-12-13T04:36:22;22.65;;;11.30;;
5819;SDS011;2936;47.348;9.640;2022-12-13T04:38:49;23.58;;;11.20;;
5819;SDS011;2936;47.348;9.640;2022-12-13T04:41:17;28.58;;;12.15;;
5819;SDS011;2936;47.348;9.640;2022-12-13T04:43:50;24.17;;;12.63;;
5819;SDS011;2936;47.348;9.640;2022-12-13T04:46:18;22.88;;;11.73;;
5819;SDS011;2936;47.348;9.640;2022-12-13T04:48:45;35.35;;;12.15;;
5819;SDS011;2936;47.348;9.640;2022-12-13T04:51:12;32.05;;;14.50;;
5819;SDS011;2936;47.348;9.640;2022-12-13T04:53:40;29.63;;;13.13;;
5819;SDS011;2936;47.348;9.640;2022-12-13T04:56:08;33.53;;;13.95;;
5819;SDS011;2936;47.348;9.640;2022-12-13T04:58:35;43.22;;;13.55;;
5819;SDS011;2936;47.348;9.640;2022-12-13T05:01:06;29.05;;;13.05;;
5819;SDS011;2936;47.348;9.640;2022-12-13T05:03:33;31.13;;;13.02;;
5819;SDS011;2936;47.348;9.640;2022-12-13T05:06:03;29.40;;;15.13;;
5819;SDS011;2936;47.348;9.640;2022-12-13T05:08:30;29.15;;;15.07;;
5819;SDS011;2936;47.348;9.640;2022-12-13T05:10:57;32.03;;;16.00;;
5819;SDS011;2936;47.348;9.640;2022-12-13T05:13:25;37.47;;;17.70;;
5819;SDS011;2936;47.348;9.640;2022-12-13T05:15:53;37.13;;;14.77;;
5819;SDS011;2936;47.348;9.640;2022-12-13T05:18:22;32.55;;;14.23;;
5819;SDS011;2936;47.348;9.640;2022-12-13T05:20:50;23.75;;;12.35;;
5819;SDS011;2936;47.348;9.640;2022-12-13T05:23:17;39.80;;;15.93;;
5819;SDS011;2936;47.348;9.640;2022-12-13T05:25:45;31.90;;;15.85;;
5819;SDS011;2936;47.348;9.640;2022-12-13T05:28:12;40.80;;;22.00;;
5819;SDS011;2936;47.348;9.640;2022-12-13T05:30:40;30.25;;;15.70;;
5819;SDS011;2936;47.348;9.640;2022-12-13T05:33:08;29.40;;;14.10;;
5819;SDS011;2936;47.348;9.640;2022-12-13T05:35:37;28.67;;;13.18;;
5819;SDS011;2936;47.348;9.640;2022-12-13T05:38:04;33.30;;;13.60;;
5819;SDS011;2936;47.348;9.640;2022-12-13T05:40:31;32.55;;;14.65;;
5819;SDS011;2936;47.348;9.640;2022-12-13T05:42:59;30.00;;;13.65;;
5819;SDS011;2936;47.348;9.640;2022-12-13T05:45:27;26.23;;;14.40;;
5819;SDS011;2936;47.348;9.640;2022-12-13T05:47:54;22.17;;;13.60;;
5819;SDS011;2936;47.348;9.640;2022-12-13T05:50:22;20.13;;;13.27;;
5819;SDS011;2936;47.348;9.640;2022-12-13T05:52:51;18.83;;;11.52;;
5819;SDS011;2936;47.348;9.640;2022-12-13T05:55:18;25.23;;;15.52;;
5819;SDS011;2936;47.348;9.640;2022-12-13T05:57:45;23.70;;;12.82;;
5819;SDS011;2936;47.348;9.640;2022-12-13T06:00:13;35.47;;;14.05;;
5819;SDS011;2936;47.348;9.640;2022-12-13T06:02:42;32.42;;;13.82;;
5819;SDS011;2936;47.348;9.640;2022-12-13T06:05:10;24.77;;;16.10;;
5819;SDS011;2936;47.348;9.640;2022-12-13T06:07:37;35.33;;;13.13;;
5819;SDS011;2936;47.348;9.640;2022-12-13T06:10:07;21.17;;;13.50;;
5819;SDS011;2936;47.348;9.640;2022-12-13T06:12:34;24.17;;;14.32;;
5819;SDS011;2936;47.348;9.640;2022-12-13T06:15:02;28.33;;;16.05;;
5819;SDS011;2936;47.348;9.640;2022-12-13T06:17:29;22.77;;;13.23;;
5819;SDS011;2936;47.348;9.640;2022-12-13T06:19:57;24.30;;;13.13;;
5819;SDS011;2936;47.348;9.640;2022-12-13T06:22:24;22.88;;;14.40;;
5819;SDS011;2936;47.348;9.640;2022-12-13T06:24:52;23.00;;;13.60;;
5819;SDS011;2936;47.348;9.640;2022-12-13T06:27:20;23.58;;;12.85;;
5819;SDS011;2936;47.348;9.640;2022-12-13T06:29:48;31.15;;;16.25;;
5819;SDS011;2936;47.348;9.640;2022-12-13T06:32:15;36.03;;;15.82;;
5819;SDS011;2936;47.348;9.640;2022-12-13T06:34:42;25.63;;;14.88;;
5819;SDS011;2936;47.348;9.640;2022-12-13T06:37:10;34.88;;;15.73;;
5819;SDS011;2936;47.348;9.640;2022-12-13T06:39:38;30.73;;;15.80;;
5819;SDS011;2936;47.348;9.640;2022-12-13T06:42:06;23.05;;;13.15;;
5819;SDS011;2936;47.348;9.640;2022-12-13T06:44:35;27.00;;;14.63;;
5819;SDS011;2936;47.348;9.640;2022-12-13T06:47:02;30.42;;;14.00;;
5819;SDS011;2936;47.348;9.640;2022-12-13T06:49:29;29.92;;;14.20;;
5819;SDS011;2936;47.348;9.640;2022-12-13T06:51:57;26.23;;;13.60;;
5819;SDS011;2936;47.348;9.640;2022-12-13T06:54:24;20.23;;;13.77;;
5819;SDS011;2936;47.348;9.640;2022-12-13T06:56:52;22.67;;;15.38;;
5819;SDS011;2936;47.348;9.640;2022-12-13T06:59:19;22.45;;;13.65;;
5819;SDS011;2936;47.348;9.640;2022-12-13T07:01:48;31.02;;;14.82;;
5819;SDS011;2936;47.348;9.640;2022-12-13T07:04:15;31.10;;;16.33;;
5819;SDS011;2936;47.348;9.640;2022-12-13T07:06:42;27.30;;;14.98;;
5819;SDS011;2936;47.348;9.640;2022-12-13T07:09:09;29.58;;;15.40;;
5819;SDS011;2936;47.348;9.640;2022-12-13T07:11:37;35.15;;;15.90;;
5819;SDS011;2936;47.348;9.640;2022-12-13T07:14:04;32.50;;;13.30;;
5819;SDS011;2936;47.348;9.640;2022-12-13T07:16:31;20.75;;;13.73;;
5819;SDS011;2936;47.348;9.640;2022-12-13T07:19:00;29.98;;;15.80;;
5819;SDS011;2936;47.348;9.640;2022-12-13T07:21:28;33.78;;;15.13;;
5819;SDS011;2936;47.348;9.640;2022-12-13T07:23:56;33.80;;;15.05;;
5819;SDS011;2936;47.348;9.640;2022-12-13T07:26:23;46.42;;;17.40;;
5819;SDS011;2936;47.348;9.640;2022-12-13T07:28:51;35.92;;;17.73;;
5819;SDS011;2936;47.348;9.640;2022-12-13T07:31:19;27.25;;;17.95;;
5819;SDS011;2936;47.348;9.640;2022-12-13T07:33:46;41.42;;;17.75;;
5819;SDS011;2936;47.348;9.640;2022-12-13T07:36:16;45.45;;;19.30;;
5819;SDS011;2936;47.348;9.640;2022-12-13T07:38:43;27.38;;;17.85;;
5819;SDS011;2936;47.348;9.640;2022-12-13T07:41:11;36.22;;;19.73;;
5819;SDS011;2936;47.348;9.640;2022-12-13T07:43:38;27.98;;;17.33;;
5819;SDS011;2936;47.348;9.640;2022-12-13T07:46:06;40.00;;;17.52;;
5819;SDS011;2936;47.348;9.640;2022-12-13T07:48:33;43.45;;;19.00;;
5819;SDS011;2936;47.348;9.640;2022-12-13T07:51:01;40.45;;;19.90;;
5819;SDS011;2936;47.348;9.640;2022-12-13T07:53:30;36.53;;;19.60;;
5819;SDS011;2936;47.348;9.640;2022-12-13T07:56:00;42.20;;;21.42;;
5819;SDS011;2936;47.348;9.640;2022-12-13T07:58:27;40.35;;;21.23;;
5819;SDS011;2936;47.348;9.640;2022-12-13T08:00:57;44.28;;;21.35;;
5819;SDS011;2936;47.348;9.640;2022-12-13T08:03:25;41.53;;;18.17;;
5819;SDS011;2936;47.348;9.640;2022-12-13T08:06:00;30.15;;;18.33;;
5819;SDS011;2936;47.348;9.640;2022-12-13T08:08:27;34.90;;;18.23;;
5819;SDS011;2936;47.348;9.640;2022-12-13T08:11:00;27.20;;;16.77;;
5819;SDS011;2936;47.348;9.640;2022-12-13T08:13:27;29.25;;;15.38;;
5819;SDS011;2936;47.348;9.640;2022-12-13T08:15:58;21.27;;;13.63;;
5819;SDS011;2936;47.348;9.640;2022-12-13T08:18:26;27.58;;;15.18;;
5819;SDS011;2936;47.348;9.640;2022-12-13T08:20:56;25.63;;;14.50;;
5819;SDS011;2936;47.348;9.640;2022-12-13T08:23:24;24.20;;;16.00;;
5819;SDS011;2936;47.348;9.640;2022-12-13T08:25:51;23.85;;;15.18;;
5819;SDS011;2936;47.348;9.640;2022-12-13T08:28:21;35.50;;;17.20;;
5819;SDS011;2936;47.348;9.640;2022-12-13T08:30:49;31.02;;;16.40;;
5819;SDS011;2936;47.348;9.640;2022-12-13T08:33:16;30.85;;;18.02;;
5819;SDS011;2936;47.348;9.640;2022-12-13T08:35:44;31.48;;;17.35;;
5819;SDS011;2936;47.348;9.640;2022-12-13T08:38:11;32.28;;;18.42;;
5819;SDS011;2936;47.348;9.640;2022-12-13T08:40:39;41.20;;;20.52;;
5819;SDS011;2936;47.348;9.640;2022-12-13T08:43:06;29.05;;;18.48;;
5819;SDS011;2936;47.348;9.640;2022-12-13T08:45:35;42.88;;;21.38;;
5819;SDS011;2936;47.348;9.640;2022-12-13T08:48:03;30.58;;;19.65;;
5819;SDS011;2936;47.348;9.640;2022-12-13T08:50:31;31.35;;;20.40;;
5819;SDS011;2936;47.348;9.640;2022-12-13T08:53:01;38.53;;;20.55;;
5819;SDS011;2936;47.348;9.640;2022-12-13T08:55:28;53.35;;;21.58;;
5819;SDS011;2936;47.348;9.640;2022-12-13T08:57:55;42.70;;;20.95;;
5819;SDS011;2936;47.348;9.640;2022-12-13T09:00:22;34.85;;;19.88;;
5819;SDS011;2936;47.348;9.640;2022-12-13T09:02:51;37.88;;;20.00;;
5819;SDS011;2936;47.348;9.640;2022-12-13T09:05:22;34.38;;;19.88;;
5819;SDS011;2936;47.348;9.640;2022-12-13T09:07:53;35.60;;;21.10;;
5819;SDS011;2936;47.348;9.640;2022-12-13T09:10:20;38.47;;;19.88;;
5819;SDS011;2936;47.348;9.640;2022-12-13T09:12:48;31.98;;;19.65;;
5819;SDS011;2936;47.348;9.640;2022-12-13T09:15:15;31.10;;;19.60;;
5819;SDS011;2936;47.348;9.640;2022-12-13T09:17:42;27.75;;;16.52;;
5819;SDS011;2936;47.348;9.640;2022-12-13T09:20:12;25.00;;;17.27;;
5819;SDS011;2936;47.348;9.640;2022-12-13T09:22:39;30.08;;;15.90;;
5819;SDS011;2936;47.348;9.640;2022-12-13T09:25:07;28.63;;;14.63;;
5819;SDS011;2936;47.348;9.640;2022-12-13T09:27:35;34.45;;;18.77;;
5819;SDS011;2936;47.348;9.640;2022-12-13T09:30:02;35.47;;;19.02;;
5819;SDS011;2936;47.348;9.640;2022-12-13T09:32:30;29.40;;;16.05;;
5819;SDS011;2936;47.348;9.640;2022-12-13T09:34:58;26.02;;;17.10;;
5819;SDS011;2936;47.348;9.640;2022-12-13T09:37:40;27.52;;;17.50;;
5819;SDS011;2936;47.348;9.640;2022-12-13T09:40:09;28.38;;;18.20;;
5819;SDS011;2936;47.348;9.640;2022-12-13T09:42:38;27.38;;;15.75;;
5819;SDS011;2936;47.348;9.640;2022-12-13T09:45:09;28.20;;;16.15;;
5819;SDS011;2936;47.348;9.640;2022-12-13T09:47:38;26.17;;;16.30;;
5819;SDS011;2936;47.348;9.640;2022-12-13T09:50:07;24.10;;;14.52;;
5819;SDS011;2936;47.348;9.640;2022-12-13T09:52:36;21.40;;;12.95;;
5819;SDS011;2936;47.348;9.640;2022-12-13T09:55:13;25.42;;;13.30;;
5819;SDS011;2936;47.348;9.640;2022-12-13T09:57:42;25.30;;;12.52;;
5819;SDS011;2936;47.348;9.640;2022-12-13T10:00:11;17.83;;;13.60;;
5819;SDS011;2936;47.348;9.640;2022-12-13T10:02:41;36.75;;;13.82;;
5819;SDS011;2936;47.348;9.640;2022-12-13T10:05:13;18.80;;;13.18;;
5819;SDS011;2936;47.348;9.640;2022-12-13T10:07:41;28.38;;;12.35;;
5819;SDS011;2936;47.348;9.640;2022-12-13T10:10:11;27.15;;;13.10;;
5819;SDS011;2936;47.348;9.640;2022-12-13T10:12:39;20.02;;;13.02;;
5819;SDS011;2936;47.348;9.640;2022-12-13T10:15:09;33.58;;;14.40;;
5819;SDS011;2936;47.348;9.640;2022-12-13T10:17:40;22.92;;;13.52;;
5819;SDS011;2936;47.348;9.640;2022-12-13T10:20:14;31.95;;;13.40;;
5819;SDS011;2936;47.348;9.640;2022-12-13T10:22:43;33.05;;;12.95;;
5819;SDS011;2936;47.348;9.640;2022-12-13T10:25:13;19.65;;;12.77;;
5819;SDS011;2936;47.348;9.640;2022-12-13T10:27:42;23.67;;;13.68;;
5819;SDS011;2936;47.348;9.640;2022-12-13T10:30:12;25.02;;;13.60;;
5819;SDS011;2936;47.348;9.640;2022-12-13T10:32:41;20.40;;;13.88;;
5819;SDS011;2936;47.348;9.640;2022-12-13T10:35:10;21.98;;;14.85;;
5819;SDS011;2936;47.348;9.640;2022-12-13T10:37:39;31.13;;;12.57;;
5819;SDS011;2936;47.348;9.640;2022-12-13T10:43:01;23.38;;;12.00;;
5819;SDS011;2936;47.348;9.640;2022-12-13T10:45:31;15.95;;;10.70;;
5819;SDS011;2936;47.348;9.640;2022-12-13T10:47:59;16.10;;;11.10;;
5819;SDS011;2936;47.348;9.640;2022-12-13T10:50:26;16.67;;;11.52;;
5819;SDS011;2936;47.348;9.640;2022-12-13T10:52:54;21.25;;;10.68;;
5819;SDS011;2936;47.348;9.640;2022-12-13T10:55:24;22.58;;;11.85;;
5819;SDS011;2936;47.348;9.640;2022-12-13T10:57:53;13.52;;;10.98;;
5819;SDS011;2936;47.348;9.640;2022-12-13T11:00:39;20.13;;;11.50;;
5819;SDS011;2936;47.348;9.640;2022-12-13T11:03:09;15.68;;;9.95;;
5819;SDS011;2936;47.348;9.640;2022-12-13T11:05:38;17.35;;;11.32;;
5819;SDS011;2936;47.348;9.640;2022-12-13T11:08:13;15.45;;;10.95;;
5819;SDS011;2936;47.348;9.640;2022-12-13T11:10:41;16.48;;;10.05;;
5819;SDS011;2936;47.348;9.640;2022-12-13T11:13:17;15.95;;;10.65;;
5819;SDS011;2936;47.348;9.640;2022-12-13T11:15:50;15.05;;;11.18;;
5819;SDS011;2936;47.348;9.640;2022-12-13T11:18:20;15.00;;;11.38;;
5819;SDS011;2936;47.348;9.640;2022-12-13T11:20:49;18.65;;;11.45;;
5819;SDS011;2936;47.348;9.640;2022-12-13T11:23:21;23.63;;;11.25;;
5819;SDS011;2936;47.348;9.640;2022-12-13T11:25:53;21.50;;;11.88;;
5819;SDS011;2936;47.348;9.640;2022-12-13T11:28:28;20.52;;;12.23;;
5819;SDS011;2936;47.348;9.640;2022-12-13T11:31:00;20.27;;;12.05;;
5819;SDS011;2936;47.348;9.640;2022-12-13T11:33:31;18.20;;;11.02;;
5819;SDS011;2936;47.348;9.640;2022-12-13T11:36:06;16.88;;;10.65;;
5819;SDS011;2936;47.348;9.640;2022-12-13T11:38:40;18.17;;;11.00;;
5819;SDS011;2936;47.348;9.640;2022-12-13T11:41:12;14.23;;;10.60;;
5819;SDS011;2936;47.348;9.640;2022-12-13T11:43:42;14.98;;;10.90;;
5819;SDS011;2936;47.348;9.640;2022-12-13T11:46:12;15.70;;;10.98;;
5819;SDS011;2936;47.348;9.640;2022-12-13T11:48:43;19.33;;;11.30;;
5819;SDS011;2936;47.348;9.640;2022-12-13T11:51:12;22.13;;;11.02;;
5819;SDS011;2936;47.348;9.640;2022-12-13T11:53:42;23.98;;;11.43;;
5819;SDS011;2936;47.348;9.640;2022-12-13T11:56:14;25.30;;;11.00;;
5819;SDS011;2936;47.348;9.640;2022-12-13T11:58:47;45.13;;;12.32;;
5819;SDS011;2936;47.348;9.640;2022-12-13T12:01:18;17.48;;;10.60;;
5819;SDS011;2936;47.348;9.640;2022-12-13T12:03:48;17.27;;;10.25;;
5819;SDS011;2936;47.348;9.640;2022-12-13T12:06:19;43.35;;;11.57;;
5819;SDS011;2936;47.348;9.640;2022-12-13T12:08:51;32.40;;;10.07;;
5819;SDS011;2936;47.348;9.640;2022-12-13T12:11:19;13.02;;;9.63;;
5819;SDS011;2936;47.348;9.640;2022-12-13T12:13:49;25.08;;;10.38;;
5819;SDS011;2936;47.348;9.640;2022-12-13T12:16:24;17.63;;;9.88;;
5819;SDS011;2936;47.348;9.640;2022-12-13T12:18:52;25.63;;;11.60;;
5819;SDS011;2936;47.348;9.640;2022-12-13T12:21:23;19.88;;;11.68;;
5819;SDS011;2936;47.348;9.640;2022-12-13T12:23:56;17.38;;;10.85;;
5819;SDS011;2936;47.348;9.640;2022-12-13T12:26:25;27.73;;;11.73;;
5819;SDS011;2936;47.348;9.640;2022-12-13T12:29:03;16.75;;;10.57;;
5819;SDS011;2936;47.348;9.640;2022-12-13T12:31:35;34.05;;;11.38;;
5819;SDS011;2936;47.348;9.640;2022-12-13T12:34:07;17.20;;;10.80;;
5819;SDS011;2936;47.348;9.640;2022-12-13T12:36:40;15.88;;;10.90;;
5819;SDS011;2936;47.348;9.640;2022-12-13T12:39:13;21.48;;;11.02;;
5819;SDS011;2936;47.348;9.640;2022-12-13T12:41:47;13.18;;;10.90;;
5819;SDS011;2936;47.348;9.640;2022-12-13T12:44:21;15.70;;;9.90;;
5819;SDS011;2936;47.348;9.640;2022-12-13T12:46:57;15.77;;;10.05;;
5819;SDS011;2936;47.348;9.640;2022-12-13T12:52:18;13.63;;;11.15;;
5819;SDS011;2936;47.348;9.640;2022-12-13T12:54:49;11.52;;;9.77;;
5819;SDS011;2936;47.348;9.640;2022-12-13T12:57:28;18.95;;;9.30;;
5819;SDS011;2936;47.348;9.640;2022-12-13T13:00:04;18.90;;;11.25;;
5819;SDS011;2936;47.348;9.640;2022-12-13T13:02:37;18.25;;;10.80;;
5819;SDS011;2936;47.348;9.640;2022-12-13T13:05:09;18.63;;;12.07;;
5819;SDS011;2936;47.348;9.640;2022-12-13T13:07:39;19.98;;;11.55;;
5819;SDS011;2936;47.348;9.640;2022-12-13T13:10:09;20.75;;;12.57;;
5819;SDS011;2936;47.348;9.640;2022-12-13T13:12:39;15.63;;;11.88;;
5819;SDS011;2936;47.348;9.640;2022-12-13T13:17:54;18.80;;;13.20;;
5819;SDS011;2936;47.348;9.640;2022-12-13T13:20:22;16.77;;;13.40;;
5819;SDS011;2936;47.348;9.640;2022-12-13T13:22:50;18.80;;;13.10;;
5819;SDS011;2936;47.348;9.640;2022-12-13T13:25:22;22.40;;;13.73;;
5819;SDS011;2936;47.348;9.640;2022-12-13T13:27:51;20.65;;;12.90;;
5819;SDS011;2936;47.348;9.640;2022-12-13T13:30:25;20.38;;;13.77;;
5819;SDS011;2936;47.348;9.640;2022-12-13T13:32:55;18.52;;;12.95;;
5819;SDS011;2936;47.348;9.640;2022-12-13T13:44:01;21.00;;;14.20;;
5819;SDS011;2936;47.348;9.640;2022-12-13T13:46:28;28.55;;;16.60;;
5819;SDS011;2936;47.348;9.640;2022-12-13T13:48:57;25.70;;;14.38;;
5819;SDS011;2936;47.348;9.640;2022-12-13T13:57:13;25.15;;;14.90;;
5819;SDS011;2936;47.348;9.640;2022-12-13T14:10:59;26.75;;;14.63;;
5819;SDS011;2936;47.348;9.640;2022-12-13T14:19:10;23.67;;;14.40;;
5819;SDS011;2936;47.348;9.640;2022-12-13T14:21:53;22.38;;;13.25;;
5819;SDS011;2936;47.348;9.640;2022-12-13T14:24:28;27.65;;;14.63;;
5819;SDS011;2936;47.348;9.640;2022-12-13T14:27:00;19.40;;;14.27;;
5819;SDS011;2936;47.348;9.640;2022-12-13T14:29:30;27.25;;;15.23;;
5819;SDS011;2936;47.348;9.640;2022-12-13T14:31:58;21.90;;;15.07;;
5819;SDS011;2936;47.348;9.640;2022-12-13T14:34:27;33.65;;;15.30;;
5819;SDS011;2936;47.348;9.640;2022-12-13T14:36:55;45.00;;;23.00;;
5819;SDS011;2936;47.348;9.640;2022-12-13T14:39:26;34.13;;;15.75;;
5819;SDS011;2936;47.348;9.640;2022-12-13T14:41:56;37.83;;;17.48;;
5819;SDS011;2936;47.348;9.640;2022-12-13T14:44:26;22.90;;;14.80;;
5819;SDS011;2936;47.348;9.640;2022-12-13T14:46:55;22.95;;;16.17;;
5819;SDS011;2936;47.348;9.640;2022-12-13T14:49:23;21.00;;;14.15;;
5819;SDS011;2936;47.348;9.640;2022-12-13T14:51:53;25.98;;;15.90;;
5819;SDS011;2936;47.348;9.640;2022-12-13T14:54:25;26.95;;;15.52;;
5819;SDS011;2936;47.348;9.640;2022-12-13T14:56:55;24.23;;;14.15;;
5819;SDS011;2936;47.348;9.640;2022-12-13T14:59:24;24.75;;;13.98;;
5819;SDS011;2936;47.348;9.640;2022-12-13T15:01:52;29.95;;;14.98;;
5819;SDS011;2936;47.348;9.640;2022-12-13T15:04:24;22.95;;;14.85;;
5819;SDS011;2936;47.348;9.640;2022-12-13T15:06:56;42.88;;;15.80;;
5819;SDS011;2936;47.348;9.640;2022-12-13T15:09:24;29.08;;;15.52;;
5819;SDS011;2936;47.348;9.640;2022-12-13T15:11:52;26.58;;;15.68;;
5819;SDS011;2936;47.348;9.640;2022-12-13T15:14:20;26.30;;;15.18;;
5819;SDS011;2936;47.348;9.640;2022-12-13T15:16:50;29.08;;;16.13;;
5819;SDS011;2936;47.348;9.640;2022-12-13T15:19:18;30.60;;;16.38;;
5819;SDS011;2936;47.348;9.640;2022-12-13T15:21:53;23.73;;;15.90;;
5819;SDS011;2936;47.348;9.640;2022-12-13T15:24:22;30.00;;;14.50;;
5819;SDS011;2936;47.348;9.640;2022-12-13T15:26:51;29.08;;;15.75;;
5819;SDS011;2936;47.348;9.640;2022-12-13T15:29:19;27.50;;;15.50;;
5819;SDS011;2936;47.348;9.640;2022-12-13T15:31:47;25.25;;;15.27;;
5819;SDS011;2936;47.348;9.640;2022-12-13T15:34:22;31.15;;;13.60;;
5819;SDS011;2936;47.348;9.640;2022-12-13T15:36:50;19.30;;;13.75;;
5819;SDS011;2936;47.348;9.640;2022-12-13T15:39:17;20.95;;;14.18;;
5819;SDS011;2936;47.348;9.640;2022-12-13T15:41:45;24.35;;;15.10;;